Time;durP1;ratioP1;P1;durP2;ratioP2;P2;SDS_P1;SDS_P2;PMS_P1;PMS_P2;Temp;Humidity;BMP_temperature;BMP_pressure;BME280_temperature;BME280_humidity;BME280_pressure;Samples;Min_cycle;Max_cycle;Signal;HPM_P1;HPM_P2
2023/06/23 00:01:01;;;;;;;86.87;40.60;;;16.40;99.90;;;;;;4965740;28;20216;-70
2023/06/23 00:03:26;;;;;;;77.63;39.10;;;16.40;99.90;;;;;;4966472;28;20463;-70
2023/06/23 00:05:52;;;;;;;58.63;31.63;;;16.40;99.90;;;;;;4988597;28;20444;-71
2023/06/23 00:08:18;;;;;;;98.60;43.40;;;16.40;99.90;;;;;;4978201;28;20212;-71
2023/06/23 00:10:43;;;;;;;59.00;34.37;;;16.30;99.90;;;;;;4979478;28;20303;-70
2023/06/23 00:13:10;;;;;;;58.80;31.50;;;16.20;99.90;;;;;;4995187;28;20226;-70
2023/06/23 00:15:36;;;;;;;74.90;33.90;;;16.20;99.90;;;;;;4968592;28;20272;-71
2023/06/23 00:18:02;;;;;;;56.67;30.83;;;16.20;99.90;;;;;;4973411;28;20522;-70
2023/06/23 00:20:27;;;;;;;57.50;29.40;;;16.10;99.90;;;;;;4977432;28;20584;-70
2023/06/23 00:22:53;;;;;;;66.90;30.87;;;16.10;99.90;;;;;;4993092;28;20297;-70
2023/06/23 00:25:18;;;;;;;68.17;29.70;;;16.10;99.90;;;;;;4985088;28;20193;-69
2023/06/23 00:27:47;;;;;;;65.90;29.50;;;16.10;99.90;;;;;;4978259;28;20188;-70
2023/06/23 00:30:13;;;;;;;70.47;31.67;;;16.10;99.90;;;;;;4974665;28;20249;-71
2023/06/23 00:32:40;;;;;;;61.47;30.00;;;16.10;99.90;;;;;;4983214;28;20455;-70
2023/06/23 00:35:10;;;;;;;58.50;30.90;;;16.00;99.90;;;;;;4985887;28;20483;-70
2023/06/23 00:37:39;;;;;;;65.33;30.47;;;16.10;99.90;;;;;;4978362;28;20422;-70
2023/06/23 00:40:12;;;;;;;64.60;31.00;;;16.10;99.90;;;;;;4977441;28;20444;-70
2023/06/23 00:42:52;;;;;;;59.07;31.93;;;16.00;99.90;;;;;;4977181;28;20423;-70
2023/06/23 00:45:19;;;;;;;78.90;35.53;;;16.10;99.90;;;;;;4977496;28;20442;-70
2023/06/23 00:47:45;;;;;;;64.13;31.10;;;16.00;99.90;;;;;;4978128;28;20685;-70
2023/06/23 00:50:15;;;;;;;97.67;35.27;;;16.10;99.90;;;;;;4977854;28;20535;-69
2023/06/23 00:52:49;;;;;;;64.63;31.17;;;16.00;99.90;;;;;;4977133;28;20528;-70
2023/06/23 00:55:16;;;;;;;87.33;33.00;;;16.00;99.90;;;;;;4976881;28;20429;-71
2023/06/23 00:57:44;;;;;;;72.40;33.30;;;16.00;99.90;;;;;;4977495;28;20416;-70
2023/06/23 01:00:17;;;;;;;72.73;31.13;;;16.00;99.90;;;;;;4976431;28;20478;-70
2023/06/23 01:02:49;;;;;;;58.47;27.33;;;15.90;99.90;;;;;;4956861;28;20499;-70
2023/06/23 01:05:20;;;;;;;81.13;33.00;;;15.90;99.90;;;;;;4977206;28;20733;-70
2023/06/23 01:08:03;;;;;;;50.30;28.00;;;15.90;99.90;;;;;;4977923;28;20720;-70
2023/06/23 01:10:39;;;;;;;63.37;30.07;;;15.90;99.90;;;;;;4978042;28;20514;-70
2023/06/23 01:13:28;;;;;;;60.33;28.77;;;15.90;99.90;;;;;;4978391;28;20847;-72
2023/06/23 01:15:59;;;;;;;62.30;29.60;;;15.90;99.90;;;;;;4974304;28;20444;-70
2023/06/23 01:18:29;;;;;;;41.67;25.40;;;15.90;99.90;;;;;;4976123;28;20539;-70
2023/06/23 01:21:01;;;;;;;51.60;26.87;;;15.90;99.90;;;;;;4977458;28;20604;-70
2023/06/23 01:23:33;;;;;;;41.03;23.50;;;15.90;99.90;;;;;;4976931;28;20467;-70
2023/06/23 01:26:24;;;;;;;46.07;23.60;;;15.90;99.90;;;;;;4977075;28;20464;-71
2023/06/23 01:29:07;;;;;;;62.67;27.67;;;15.80;99.90;;;;;;4976457;28;20831;-70
2023/06/23 01:31:48;;;;;;;49.43;23.20;;;15.80;99.90;;;;;;4990594;28;20835;-69
2023/06/23 01:34:20;;;;;;;49.50;21.97;;;15.70;99.90;;;;;;4970904;28;20420;-70
2023/06/23 01:36:54;;;;;;;56.87;24.60;;;15.70;99.90;;;;;;4994279;28;20534;-70
2023/06/23 01:39:23;;;;;;;45.03;20.70;;;15.70;99.90;;;;;;4979291;28;20570;-70
2023/06/23 01:42:03;;;;;;;38.97;19.23;;;15.70;99.90;;;;;;4990388;28;20697;-69
2023/06/23 01:44:31;;;;;;;47.87;21.77;;;15.70;99.90;;;;;;4992529;28;20730;-69
2023/06/23 01:47:01;;;;;;;34.43;18.53;;;15.70;99.90;;;;;;4978440;28;20427;-70
2023/06/23 01:49:36;;;;;;;45.20;20.60;;;15.80;99.90;;;;;;4976796;28;20448;-70
2023/06/23 01:52:06;;;;;;;40.07;17.93;;;15.80;99.90;;;;;;4976936;28;20797;-72
2023/06/23 01:54:36;;;;;;;23.47;15.67;;;15.70;99.90;;;;;;4983858;28;20508;-70
2023/06/23 01:57:04;;;;;;;22.50;13.67;;;15.80;99.90;;;;;;4940313;29;20831;-70
2023/06/23 01:59:31;;;;;;;22.00;12.67;;;15.70;99.90;;;;;;4970728;28;20740;-69
2023/06/23 02:02:00;;;;;;;24.57;14.07;;;15.70;99.90;;;;;;4940304;28;20425;-69
2023/06/23 02:04:27;;;;;;;17.93;12.40;;;15.70;99.90;;;;;;4966865;28;20489;-70
2023/06/23 02:06:54;;;;;;;23.20;11.37;;;15.80;99.90;;;;;;4977073;28;20415;-71
2023/06/23 02:09:24;;;;;;;14.33;11.47;;;15.70;99.90;;;;;;4995756;28;20434;-70
2023/06/23 02:11:51;;;;;;;24.27;11.07;;;16.00;99.90;;;;;;4976846;28;20429;-70
2023/06/23 02:14:18;;;;;;;19.27;10.90;;;16.00;99.90;;;;;;4967959;28;20817;-70
2023/06/23 02:16:46;;;;;;;16.83;11.53;;;16.00;99.90;;;;;;4941357;29;20593;-72
2023/06/23 02:19:13;;;;;;;18.83;11.57;;;15.90;99.90;;;;;;4960325;28;20721;-70
2023/06/23 02:21:41;;;;;;;12.83;10.60;;;15.90;99.90;;;;;;4996081;28;20411;-71
2023/06/23 02:24:07;;;;;;;15.57;11.40;;;15.90;99.90;;;;;;4967064;28;20574;-71
2023/06/23 02:26:34;;;;;;;16.27;10.30;;;15.90;99.90;;;;;;4985689;28;20699;-71
2023/06/23 02:29:01;;;;;;;13.13;10.00;;;16.00;99.90;;;;;;4988598;28;20907;-70
2023/06/23 02:31:27;;;;;;;19.63;11.47;;;16.00;99.90;;;;;;4989087;28;20423;-70
2023/06/23 02:33:52;;;;;;;13.10;9.00;;;16.10;99.90;;;;;;4994824;28;20426;-70
2023/06/23 02:36:25;;;;;;;14.87;10.53;;;16.10;99.90;;;;;;4976187;28;20225;-71
2023/06/23 02:38:54;;;;;;;13.37;10.93;;;16.20;99.90;;;;;;4975880;28;20251;-69
2023/06/23 02:41:22;;;;;;;14.23;10.17;;;16.20;99.90;;;;;;4976215;28;20405;-71
2023/06/23 02:43:53;;;;;;;19.33;11.93;;;16.30;99.90;;;;;;4975019;28;20464;-70
2023/06/23 02:46:22;;;;;;;19.47;10.93;;;16.30;99.90;;;;;;4975720;28;20511;-70
2023/06/23 02:48:51;;;;;;;12.63;9.70;;;16.40;99.90;;;;;;4974653;28;20521;-71
2023/06/23 02:51:21;;;;;;;13.17;9.60;;;16.50;99.90;;;;;;4975761;28;20763;-69
2023/06/23 02:54:04;;;;;;;12.93;9.80;;;16.50;99.90;;;;;;4974720;28;20913;-70
2023/06/23 02:56:32;;;;;;;12.30;8.47;;;16.50;99.90;;;;;;4966173;28;20487;-70
2023/06/23 02:59:05;;;;;;;13.17;9.40;;;16.60;99.90;;;;;;4976579;28;20431;-70
2023/06/23 03:01:34;;;;;;;12.27;9.57;;;16.60;99.90;;;;;;4973890;28;20951;-70
2023/06/23 03:04:00;;;;;;;13.17;9.43;;;16.60;99.90;;;;;;4976051;28;20760;-70
2023/06/23 03:06:26;;;;;;;10.50;8.67;;;16.60;99.90;;;;;;4974425;28;20420;-71
2023/06/23 03:08:52;;;;;;;10.80;8.90;;;16.60;99.90;;;;;;4975145;28;20243;-70
2023/06/23 03:11:18;;;;;;;11.40;8.80;;;16.60;99.90;;;;;;4975980;28;20724;-70
2023/06/23 03:13:45;;;;;;;12.60;9.13;;;16.60;99.90;;;;;;4974448;28;20194;-71
2023/06/23 03:16:25;;;;;;;10.47;8.83;;;16.60;99.90;;;;;;4975959;28;20547;-70
2023/06/23 03:19:13;;;;;;;10.00;9.00;;;16.60;99.90;;;;;;4975973;28;20435;-70
2023/06/23 03:21:39;;;;;;;11.10;9.13;;;16.60;99.90;;;;;;4975601;28;20435;-69
2023/06/23 03:24:12;;;;;;;14.10;9.50;;;16.60;99.90;;;;;;4974447;28;20475;-70
2023/06/23 03:26:41;;;;;;;11.23;10.17;;;16.60;99.90;;;;;;4975339;28;20436;-71
2023/06/23 03:29:10;;;;;;;10.43;9.33;;;16.60;99.90;;;;;;4976359;28;20429;-69
2023/06/23 03:31:42;;;;;;;13.43;9.47;;;16.60;99.90;;;;;;4956789;28;20419;-69
2023/06/23 03:34:08;;;;;;;11.97;9.43;;;16.60;99.90;;;;;;4956209;28;20662;-69
2023/06/23 03:36:38;;;;;;;13.33;10.47;;;16.60;99.90;;;;;;4964273;28;20496;-69
2023/06/23 03:39:09;;;;;;;11.87;9.60;;;16.60;99.90;;;;;;4974194;28;20514;-70
2023/06/23 03:41:35;;;;;;;12.00;10.70;;;16.60;99.90;;;;;;4976762;28;20732;-70
2023/06/23 03:44:22;;;;;;;11.10;9.93;;;16.60;99.90;;;;;;4978531;28;20916;-70
2023/06/23 03:47:04;;;;;;;14.47;10.77;;;16.70;99.90;;;;;;4977822;28;20432;-69
2023/06/23 03:49:37;;;;;;;14.07;10.13;;;16.70;99.90;;;;;;4978409;28;20735;-70
2023/06/23 03:52:06;;;;;;;12.37;11.07;;;16.70;99.90;;;;;;4978384;28;20773;-70
2023/06/23 03:54:33;;;;;;;16.27;10.80;;;16.70;99.90;;;;;;4979982;28;20428;-69
2023/06/23 03:57:02;;;;;;;15.13;12.23;;;16.80;99.90;;;;;;4981590;28;20418;-71
2023/06/23 03:59:29;;;;;;;15.30;10.20;;;16.80;99.90;;;;;;4980995;28;20469;-70
2023/06/23 04:01:57;;;;;;;13.27;11.27;;;16.80;99.90;;;;;;4981747;28;20432;-69
2023/06/23 04:04:24;;;;;;;13.30;11.60;;;16.80;99.90;;;;;;4982689;28;20473;-70
2023/06/23 04:06:52;;;;;;;12.70;10.23;;;16.80;99.90;;;;;;4984223;28;20417;-70
2023/06/23 04:09:20;;;;;;;12.07;10.37;;;16.90;99.90;;;;;;4977312;28;20476;-69
2023/06/23 04:11:47;;;;;;;16.13;11.03;;;16.90;99.90;;;;;;4978191;28;20508;-70
2023/06/23 04:14:14;;;;;;;12.43;11.13;;;16.90;99.90;;;;;;4978363;28;20715;-69
2023/06/23 04:16:41;;;;;;;12.10;10.80;;;16.90;99.90;;;;;;4977889;28;20432;-70
2023/06/23 04:19:09;;;;;;;15.77;12.40;;;16.90;99.90;;;;;;4978128;28;20444;-70
2023/06/23 04:21:37;;;;;;;17.17;12.93;;;16.90;99.90;;;;;;4978090;28;20416;-68
2023/06/23 04:24:04;;;;;;;14.03;12.40;;;17.00;99.90;;;;;;4978310;28;20464;-70
2023/06/23 04:26:33;;;;;;;16.13;12.50;;;16.90;99.90;;;;;;4977557;28;20527;-69
2023/06/23 04:29:02;;;;;;;14.97;13.17;;;17.00;99.90;;;;;;4978189;28;20499;-70
2023/06/23 04:31:30;;;;;;;15.23;13.00;;;17.00;99.90;;;;;;4977186;28;20535;-69
2023/06/23 04:33:55;;;;;;;17.63;12.27;;;17.00;99.90;;;;;;4977904;28;20424;-70
2023/06/23 04:36:23;;;;;;;14.60;11.80;;;17.00;99.90;;;;;;4977039;28;20451;-70
2023/06/23 04:39:03;;;;;;;14.37;11.30;;;17.00;99.90;;;;;;4977477;28;20195;-69
2023/06/23 04:41:31;;;;;;;15.67;13.97;;;17.10;99.90;;;;;;4977721;28;20416;-70
2023/06/23 04:43:59;;;;;;;15.97;14.20;;;17.10;99.90;;;;;;4978169;28;20923;-70
2023/06/23 04:46:33;;;;;;;14.67;12.87;;;17.10;99.90;;;;;;4977312;28;20442;-69
2023/06/23 04:49:09;;;;;;;14.40;12.90;;;17.10;99.90;;;;;;4977915;28;20475;-70
2023/06/23 04:51:46;;;;;;;15.30;13.50;;;17.10;99.90;;;;;;4977923;28;20412;-69
2023/06/23 04:54:17;;;;;;;17.63;13.63;;;17.10;99.90;;;;;;4976359;28;20583;-70
2023/06/23 04:56:48;;;;;;;16.60;13.80;;;17.20;99.90;;;;;;4977103;28;20425;-70
2023/06/23 04:59:15;;;;;;;15.03;12.77;;;17.40;99.90;;;;;;4958465;28;20518;-70
2023/06/23 05:01:43;;;;;;;20.33;15.33;;;17.50;99.90;;;;;;4979559;28;20450;-69
2023/06/23 05:04:11;;;;;;;19.83;16.10;;;17.50;99.90;;;;;;4980863;28;20759;-70
2023/06/23 05:06:38;;;;;;;17.33;15.57;;;17.60;99.90;;;;;;4981034;28;20418;-72
2023/06/23 05:09:05;;;;;;;18.10;15.03;;;17.60;99.90;;;;;;4981925;28;20428;-71
2023/06/23 05:11:33;;;;;;;15.47;13.83;;;17.60;99.90;;;;;;4980008;28;20455;-70
2023/06/23 05:14:01;;;;;;;22.70;15.90;;;17.60;99.90;;;;;;4981062;28;20419;-71
2023/06/23 05:16:27;;;;;;;16.50;13.80;;;17.60;99.90;;;;;;4982290;28;20435;-71
2023/06/23 05:18:54;;;;;;;18.10;12.43;;;17.70;99.90;;;;;;4981606;28;20426;-71
2023/06/23 05:21:23;;;;;;;18.33;13.60;;;17.80;99.90;;;;;;4981710;28;20915;-70
2023/06/23 05:23:53;;;;;;;18.67;15.60;;;17.90;99.90;;;;;;4983162;28;20460;-71
2023/06/23 05:26:20;;;;;;;17.47;13.97;;;17.90;99.90;;;;;;4983648;28;20689;-70
2023/06/23 05:28:47;;;;;;;17.13;14.60;;;18.00;99.90;;;;;;4983632;28;20424;-72
2023/06/23 05:31:14;;;;;;;44.00;19.40;;;18.00;99.90;;;;;;4980219;28;20423;-72
2023/06/23 05:33:42;;;;;;;17.90;15.50;;;18.00;99.90;;;;;;4983406;28;20762;-73
2023/06/23 05:36:11;;;;;;;23.03;17.40;;;18.10;99.90;;;;;;4996126;28;20465;-71
2023/06/23 05:38:38;;;;;;;15.77;13.60;;;18.00;99.90;;;;;;4993719;28;20425;-71
2023/06/23 05:41:04;;;;;;;19.00;15.90;;;18.00;99.90;;;;;;4983008;28;20547;-70
2023/06/23 05:43:30;;;;;;;18.57;16.47;;;18.00;99.90;;;;;;4990732;28;20488;-73
2023/06/23 05:45:57;;;;;;;18.07;15.33;;;18.00;99.90;;;;;;4972118;28;20254;-72
2023/06/23 05:48:42;;;;;;;16.03;14.00;;;18.00;99.90;;;;;;4965404;28;20223;-70
2023/06/23 05:51:12;;;;;;;16.30;13.90;;;18.10;99.90;;;;;;4983280;28;20416;-75
2023/06/23 05:53:39;;;;;;;18.73;13.67;;;18.20;99.90;;;;;;4991769;28;20510;-71
2023/06/23 05:56:22;;;;;;;18.70;14.20;;;18.40;99.90;;;;;;4989701;28;20436;-71
2023/06/23 05:58:52;;;;;;;18.00;13.40;;;18.50;99.90;;;;;;5002330;28;20430;-73
2023/06/23 06:01:21;;;;;;;18.13;16.10;;;18.60;99.90;;;;;;4992365;28;20434;-74
2023/06/23 06:03:59;;;;;;;19.80;14.73;;;18.70;99.90;;;;;;4986962;28;20467;-74
2023/06/23 06:06:26;;;;;;;18.10;15.53;;;18.80;99.90;;;;;;4997426;28;20922;-73
2023/06/23 06:08:53;;;;;;;21.93;16.77;;;18.80;99.90;;;;;;4982765;28;20470;-72
2023/06/23 06:11:21;;;;;;;20.17;16.00;;;18.80;99.90;;;;;;4984733;28;20456;-73
2023/06/23 06:13:48;;;;;;;15.30;13.37;;;18.80;99.90;;;;;;4967234;28;20420;-74
2023/06/23 06:16:15;;;;;;;22.17;18.10;;;18.80;99.90;;;;;;4975456;28;20454;-73
2023/06/23 06:18:43;;;;;;;16.43;14.73;;;18.80;99.90;;;;;;4964315;28;20435;-70
2023/06/23 06:21:11;;;;;;;17.57;15.83;;;18.80;99.90;;;;;;4984145;28;20869;-72
2023/06/23 06:23:39;;;;;;;16.10;14.37;;;18.80;99.90;;;;;;5001686;28;20450;-74
2023/06/23 06:26:06;;;;;;;18.23;15.67;;;18.90;99.90;;;;;;5002755;28;20944;-74
2023/06/23 06:28:33;;;;;;;21.50;16.70;;;18.80;99.90;;;;;;4993238;28;20411;-72
2023/06/23 06:31:00;;;;;;;20.60;17.07;;;18.80;99.90;;;;;;4986197;28;20536;-73
2023/06/23 06:33:28;;;;;;;18.50;16.50;;;18.80;99.90;;;;;;4985231;28;20526;-72
2023/06/23 06:35:57;;;;;;;16.73;14.30;;;19.00;99.90;;;;;;4994897;28;20459;-72
2023/06/23 06:38:23;;;;;;;17.43;15.07;;;19.20;99.90;;;;;;4965617;28;20938;-70
2023/06/23 06:40:52;;;;;;;19.63;16.87;;;19.20;99.90;;;;;;4983348;28;20447;-72
2023/06/23 06:43:18;;;;;;;16.83;15.20;;;19.30;99.90;;;;;;4983605;28;20471;-75
2023/06/23 06:45:45;;;;;;;21.03;19.00;;;19.40;99.90;;;;;;4971868;28;20936;-75
2023/06/23 06:48:11;;;;;;;19.13;14.10;;;19.50;99.90;;;;;;4986885;28;20453;-73
2023/06/23 06:50:38;;;;;;;20.67;17.47;;;19.40;99.90;;;;;;4989537;28;20502;-74
2023/06/23 06:53:06;;;;;;;17.20;14.63;;;19.60;99.90;;;;;;4985664;28;20491;-75
2023/06/23 06:55:32;;;;;;;19.30;17.30;;;19.70;99.90;;;;;;4967449;28;20426;-66
2023/06/23 06:57:57;;;;;;;19.17;16.33;;;20.00;99.90;;;;;;4967932;28;20448;-75
2023/06/23 07:00:23;;;;;;;18.77;16.30;;;20.10;99.90;;;;;;4966940;28;20239;-76
2023/06/23 07:02:50;;;;;;;18.00;15.23;;;20.40;99.90;;;;;;4972780;28;20176;-77
2023/06/23 07:05:18;;;;;;;16.73;14.93;;;20.70;99.90;;;;;;4980873;28;20192;-72
2023/06/23 07:07:44;;;;;;;18.70;16.27;;;20.80;99.90;;;;;;4983359;28;20424;-70
2023/06/23 07:10:10;;;;;;;18.60;14.83;;;20.70;99.90;;;;;;4988093;28;20467;-74
2023/06/23 07:12:36;;;;;;;18.13;16.03;;;20.80;99.90;;;;;;4979910;28;20442;-73
2023/06/23 07:15:02;;;;;;;17.17;15.37;;;20.90;99.90;;;;;;4976244;28;20443;-72
2023/06/23 07:17:28;;;;;;;19.10;15.30;;;21.20;99.90;;;;;;5007455;28;20184;-77
2023/06/23 07:19:53;;;;;;;14.63;13.10;;;21.40;99.90;;;;;;5009671;28;21004;-73
2023/06/23 07:22:19;;;;;;;17.63;15.70;;;21.30;99.90;;;;;;4974082;28;20178;-75
2023/06/23 07:24:44;;;;;;;14.50;13.00;;;21.50;99.90;;;;;;5008712;28;20289;-75
2023/06/23 07:27:10;;;;;;;16.20;13.93;;;21.70;99.90;;;;;;4991189;28;20192;-73
2023/06/23 07:29:36;;;;;;;17.87;13.17;;;21.80;99.90;;;;;;5001185;28;20224;-72
2023/06/23 07:32:02;;;;;;;18.67;16.70;;;22.00;99.90;;;;;;4988170;28;20492;-72
2023/06/23 07:34:28;;;;;;;15.60;13.93;;;22.00;99.90;;;;;;4990300;28;20226;-72
2023/06/23 07:36:55;;;;;;;14.33;12.80;;;21.90;99.90;;;;;;4990658;28;20515;-75
2023/06/23 07:39:20;;;;;;;17.03;14.97;;;21.70;99.90;;;;;;4982372;28;20444;-73
2023/06/23 07:41:46;;;;;;;17.77;15.97;;;21.40;99.90;;;;;;4987002;28;20428;-75
2023/06/23 07:44:12;;;;;;;16.83;14.90;;;21.30;99.90;;;;;;4988041;28;20196;-72
2023/06/23 07:46:37;;;;;;;16.33;14.70;;;21.20;99.90;;;;;;4952717;29;20577;-73
2023/06/23 07:49:03;;;;;;;17.97;16.13;;;21.30;99.90;;;;;;4987732;28;20271;-72
2023/06/23 07:51:28;;;;;;;16.80;15.20;;;21.20;99.90;;;;;;5007404;28;20195;-72
2023/06/23 07:53:55;;;;;;;17.00;15.30;;;21.20;99.90;;;;;;4978826;28;20200;-73
2023/06/23 07:56:21;;;;;;;17.03;15.30;;;21.10;99.90;;;;;;4970663;28;20557;-71
2023/06/23 07:58:46;;;;;;;17.33;14.83;;;21.00;99.90;;;;;;4988019;28;20447;-73
2023/06/23 08:01:12;;;;;;;17.83;14.73;;;21.20;99.90;;;;;;4988099;28;20443;-77
2023/06/23 08:03:38;;;;;;;16.80;12.90;;;21.30;99.90;;;;;;4997536;28;20246;-73
2023/06/23 08:06:03;;;;;;;15.37;13.90;;;21.60;99.90;;;;;;5006599;28;20235;-74
2023/06/23 08:08:29;;;;;;;15.83;14.33;;;21.70;99.90;;;;;;4989762;28;20443;-73
2023/06/23 08:10:55;;;;;;;15.60;13.97;;;21.80;99.90;;;;;;4994056;28;20208;-74
2023/06/23 08:13:20;;;;;;;15.97;14.03;;;22.10;99.90;;;;;;5006163;28;20190;-74
2023/06/23 08:15:46;;;;;;;15.57;12.40;;;22.30;99.90;;;;;;4964098;28;20286;-72
2023/06/23 08:18:12;;;;;;;15.30;11.83;;;22.20;99.80;;;;;;4971424;28;20173;-74
2023/06/23 08:20:38;;;;;;;18.27;13.83;;;22.10;99.90;;;;;;4981188;28;20537;-73
2023/06/23 08:23:04;;;;;;;13.30;11.97;;;22.20;99.90;;;;;;5003131;28;20212;-74
2023/06/23 08:25:29;;;;;;;11.50;10.30;;;22.20;99.90;;;;;;4970562;28;20165;-72
2023/06/23 08:27:55;;;;;;;10.63;9.30;;;22.30;99.20;;;;;;4967831;28;20232;-74
2023/06/23 08:30:30;;;;;;;12.67;11.23;;;22.20;98.50;;;;;;4947878;28;20353;-73
2023/06/23 08:32:57;;;;;;;11.30;10.20;;;22.20;98.20;;;;;;4999533;28;20184;-75
2023/06/23 08:35:23;;;;;;;10.80;9.50;;;22.20;99.40;;;;;;5007046;28;20459;-76
2023/06/23 08:37:48;;;;;;;16.03;11.13;;;22.30;99.10;;;;;;5006554;28;20423;-76
2023/06/23 08:40:14;;;;;;;11.13;9.93;;;22.30;98.20;;;;;;4989436;28;20283;-74
2023/06/23 08:42:40;;;;;;;10.37;9.37;;;22.40;98.30;;;;;;4985254;28;20184;-73
2023/06/23 08:45:08;;;;;;;10.50;9.50;;;22.50;96.10;;;;;;4978205;28;20284;-75
2023/06/23 08:47:43;;;;;;;12.50;9.77;;;22.60;94.50;;;;;;4984174;28;20533;-73
2023/06/23 08:50:08;;;;;;;13.63;11.23;;;22.70;91.30;;;;;;4987185;28;20761;-71
2023/06/23 08:52:35;;;;;;;12.30;11.10;;;22.80;94.50;;;;;;4989568;28;20492;-73
2023/06/23 08:55:02;;;;;;;11.70;9.50;;;22.90;94.80;;;;;;4982445;28;20185;-74
2023/06/23 08:57:28;;;;;;;14.47;12.40;;;23.00;93.60;;;;;;4966812;29;20441;-73
2023/06/23 08:59:53;;;;;;;13.47;12.10;;;23.10;93.10;;;;;;4954838;28;20459;-71
2023/06/23 09:02:19;;;;;;;12.70;9.80;;;22.90;95.20;;;;;;4970739;28;20272;-73
2023/06/23 09:04:44;;;;;;;8.13;6.63;;;22.90;94.90;;;;;;4988565;28;20304;-75
2023/06/23 09:07:10;;;;;;;11.60;8.43;;;23.00;91.20;;;;;;4955565;28;20177;-75
2023/06/23 09:09:36;;;;;;;11.93;10.50;;;23.10;87.50;;;;;;4975366;28;20255;-73
2023/06/23 09:12:02;;;;;;;10.30;9.30;;;23.00;91.60;;;;;;5002383;28;20180;-75
2023/06/23 09:14:31;;;;;;;13.97;11.77;;;23.20;90.90;;;;;;4987802;28;20181;-72
2023/06/23 09:16:57;;;;;;;12.27;10.47;;;23.20;91.10;;;;;;4951142;29;20199;-75
2023/06/23 09:19:24;;;;;;;11.10;10.03;;;23.00;91.30;;;;;;4952561;29;20460;-72
2023/06/23 09:21:51;;;;;;;10.40;9.40;;;23.10;92.20;;;;;;4967381;29;20479;-73
2023/06/23 09:24:17;;;;;;;11.97;9.13;;;23.30;89.60;;;;;;4950771;29;20465;-74
2023/06/23 09:26:47;;;;;;;9.50;8.60;;;23.40;85.70;;;;;;4923249;29;20428;-73
2023/06/23 09:29:17;;;;;;;9.43;7.70;;;23.50;79.70;;;;;;4950393;29;20201;-73
2023/06/23 09:31:45;;;;;;;11.50;10.30;;;23.40;78.80;;;;;;4986107;28;20429;-73
2023/06/23 09:34:26;;;;;;;10.57;9.00;;;23.50;78.20;;;;;;4990205;28;20763;-75
2023/06/23 09:36:54;;;;;;;9.70;8.70;;;23.40;77.70;;;;;;5005376;28;20557;-72
2023/06/23 09:39:20;;;;;;;10.17;8.90;;;23.20;76.20;;;;;;5001443;28;20443;-72
2023/06/23 09:41:52;;;;;;;9.07;7.83;;;23.10;80.00;;;;;;4969756;28;20649;-75
2023/06/23 09:44:18;;;;;;;10.57;8.23;;;23.30;80.00;;;;;;4987999;28;20468;-76
2023/06/23 09:46:43;;;;;;;6.20;5.60;;;23.60;79.90;;;;;;4966484;28;20430;-74
2023/06/23 09:49:09;;;;;;;9.80;8.10;;;23.80;76.10;;;;;;4992919;28;20487;-74
2023/06/23 09:51:44;;;;;;;8.13;7.33;;;23.80;71.90;;;;;;4990436;28;20176;-71
2023/06/23 09:54:10;;;;;;;8.30;7.50;;;23.80;70.20;;;;;;5002899;28;20520;-73
2023/06/23 09:56:36;;;;;;;7.83;6.63;;;24.00;69.70;;;;;;4988018;28;20439;-75
2023/06/23 09:59:02;;;;;;;9.00;6.90;;;24.00;71.00;;;;;;4999909;28;20203;-74
2023/06/23 10:01:27;;;;;;;8.40;6.60;;;23.90;70.30;;;;;;4960825;28;20199;-74
2023/06/23 10:03:55;;;;;;;9.87;8.97;;;24.20;69.10;;;;;;4982112;28;20482;-74
2023/06/23 10:06:32;;;;;;;9.87;6.87;;;24.30;68.30;;;;;;4994510;28;20180;-77
2023/06/23 10:09:05;;;;;;;6.87;6.27;;;24.30;67.90;;;;;;4988728;28;20438;-75
2023/06/23 10:11:33;;;;;;;9.87;8.73;;;24.20;67.90;;;;;;5006558;28;20423;-74
2023/06/23 10:14:05;;;;;;;9.60;7.20;;;24.40;67.10;;;;;;4980149;28;20427;-74
2023/06/23 10:16:31;;;;;;;8.77;7.13;;;24.50;64.20;;;;;;4967776;28;20455;-72
2023/06/23 10:18:57;;;;;;;8.47;6.70;;;24.40;62.90;;;;;;4990135;28;20420;-77
2023/06/23 10:21:23;;;;;;;9.20;5.90;;;24.40;62.60;;;;;;4972288;28;20432;-76
2023/06/23 10:23:52;;;;;;;8.10;6.20;;;24.60;62.70;;;;;;4984604;28;20463;-74
2023/06/23 10:26:19;;;;;;;10.50;7.33;;;24.80;63.20;;;;;;4967595;28;20422;-74
2023/06/23 10:28:49;;;;;;;11.53;8.83;;;24.90;62.10;;;;;;4957144;28;20432;-74
2023/06/23 10:31:16;;;;;;;7.60;6.30;;;24.70;59.20;;;;;;4950174;29;20516;-74
2023/06/23 10:33:43;;;;;;;7.70;6.90;;;24.60;60.70;;;;;;4952682;29;20478;-76
2023/06/23 10:36:14;;;;;;;9.03;6.83;;;24.70;60.70;;;;;;4965406;28;20488;-75
2023/06/23 10:38:43;;;;;;;7.60;5.70;;;24.80;61.10;;;;;;4986067;28;20495;-73
2023/06/23 10:41:11;;;;;;;8.70;7.80;;;24.70;61.60;;;;;;4984323;28;20412;-73
2023/06/23 10:43:40;;;;;;;7.80;7.00;;;24.70;62.10;;;;;;4984058;28;20463;-76
2023/06/23 10:46:06;;;;;;;8.53;7.37;;;24.90;62.60;;;;;;4984879;28;20431;-76
2023/06/23 10:48:32;;;;;;;7.93;6.70;;;24.90;62.30;;;;;;4987252;28;20407;-74
2023/06/23 10:50:58;;;;;;;8.10;6.17;;;25.00;61.10;;;;;;4986806;28;20446;-76
2023/06/23 10:53:32;;;;;;;8.30;6.90;;;25.20;60.60;;;;;;4990225;28;20465;-76
2023/06/23 10:55:58;;;;;;;9.60;7.50;;;25.40;60.70;;;;;;4992449;28;20492;-74
2023/06/23 10:58:25;;;;;;;10.17;9.10;;;25.20;61.00;;;;;;4974407;28;20451;-76
2023/06/23 11:00:54;;;;;;;11.50;8.47;;;25.00;62.90;;;;;;4990950;28;20502;-74
2023/06/23 11:03:34;;;;;;;11.20;8.93;;;24.90;63.70;;;;;;4975111;28;20491;-75
2023/06/23 11:06:04;;;;;;;8.80;7.00;;;25.00;62.80;;;;;;4974176;29;20423;-77
2023/06/23 11:08:35;;;;;;;7.70;6.20;;;24.90;62.60;;;;;;4980866;28;20427;-77
2023/06/23 11:11:06;;;;;;;6.83;6.13;;;24.90;61.80;;;;;;4989690;28;20436;-74
2023/06/23 11:13:41;;;;;;;9.20;7.00;;;24.90;59.60;;;;;;4991940;28;20897;-73
2023/06/23 11:16:14;;;;;;;9.70;6.97;;;25.10;58.90;;;;;;5002026;28;20735;-76
2023/06/23 11:18:54;;;;;;;8.30;6.13;;;25.20;58.00;;;;;;4992110;28;20431;-75
2023/06/23 11:21:29;;;;;;;5.30;4.80;;;25.20;56.60;;;;;;4995919;28;20422;-73
2023/06/23 11:24:16;;;;;;;6.43;5.10;;;25.20;56.40;;;;;;4991490;28;20482;-75
2023/06/23 11:26:44;;;;;;;8.53;6.00;;;25.10;56.10;;;;;;4993122;28;20431;-74
2023/06/23 11:29:12;;;;;;;7.20;5.03;;;25.10;56.10;;;;;;4992269;28;20460;-76
2023/06/23 11:32:11;;;;;;;7.00;5.90;;;25.20;55.50;;;;;;4990038;28;20441;-74
2023/06/23 11:35:01;;;;;;;10.67;6.50;;;25.30;55.30;;;;;;4970385;29;20413;-75
2023/06/23 11:37:30;;;;;;;6.33;5.40;;;25.10;55.90;;;;;;4971946;28;20421;-75
2023/06/23 11:39:56;;;;;;;7.40;5.03;;;24.90;55.90;;;;;;4967912;29;20720;-75
2023/06/23 11:42:22;;;;;;;6.30;5.77;;;24.80;55.70;;;;;;4972163;29;20413;-75
2023/06/23 11:44:49;;;;;;;6.00;5.40;;;24.70;54.80;;;;;;4977341;28;20248;-76
2023/06/23 11:47:15;;;;;;;6.87;5.97;;;24.60;55.10;;;;;;4993905;28;20447;-74
2023/06/23 11:49:41;;;;;;;7.40;6.70;;;24.50;54.60;;;;;;4980319;28;20449;-64
2023/06/23 11:52:07;;;;;;;7.67;6.47;;;24.40;54.30;;;;;;4994251;28;20408;-76
2023/06/23 11:54:38;;;;;;;5.67;4.93;;;24.30;54.40;;;;;;4989387;28;20434;-77
2023/06/23 11:57:04;;;;;;;11.73;5.97;;;24.30;54.60;;;;;;4989802;28;20502;-76
2023/06/23 11:59:35;;;;;;;9.13;5.20;;;24.30;53.40;;;;;;4993832;28;20436;-73
2023/06/23 12:02:01;;;;;;;7.70;5.07;;;24.40;53.00;;;;;;4993307;28;20483;-76
2023/06/23 12:04:27;;;;;;;4.60;4.20;;;24.40;52.00;;;;;;4996521;28;20511;-77
2023/06/23 12:06:53;;;;;;;4.17;3.47;;;24.40;51.10;;;;;;4992280;28;20200;-74
2023/06/23 12:09:22;;;;;;;5.33;3.80;;;24.50;49.90;;;;;;4996093;28;20515;-77
2023/06/23 12:11:48;;;;;;;5.20;4.70;;;24.60;49.70;;;;;;4993928;28;20193;-76
2023/06/23 12:14:14;;;;;;;5.30;4.40;;;24.60;51.20;;;;;;4994725;28;20419;-77
2023/06/23 12:16:39;;;;;;;4.03;3.30;;;24.70;51.30;;;;;;4971006;28;20204;-77
2023/06/23 12:19:05;;;;;;;7.10;5.30;;;24.70;50.90;;;;;;4985620;28;20209;-74
2023/06/23 12:21:32;;;;;;;4.33;3.67;;;24.80;51.20;;;;;;4970795;28;20215;-76
2023/06/23 12:23:58;;;;;;;5.40;4.30;;;24.90;49.20;;;;;;4986607;28;20487;-75
2023/06/23 12:26:24;;;;;;;4.53;4.10;;;24.80;50.50;;;;;;4988791;28;20455;-73
2023/06/23 12:28:50;;;;;;;4.17;3.27;;;24.80;50.10;;;;;;4986505;28;20404;-73
2023/06/23 12:31:28;;;;;;;4.30;3.90;;;24.80;49.10;;;;;;4986833;28;20192;-73
2023/06/23 12:33:55;;;;;;;5.10;3.40;;;24.90;47.00;;;;;;4989491;28;20198;-76
2023/06/23 12:36:25;;;;;;;3.60;3.30;;;25.00;46.20;;;;;;5005065;28;20475;-73
2023/06/23 12:38:57;;;;;;;4.80;3.70;;;25.00;45.60;;;;;;4970537;28;20440;-77
2023/06/23 12:41:26;;;;;;;3.80;3.50;;;25.10;45.90;;;;;;5006246;28;20420;-76